sensor_id;sensor_type;location;lat;lon;timestamp;P1;durP1;ratioP1;P2;durP2;ratioP2
37641;SDS011;23486;51.956;5.888;2023-08-30T00:00:07;6.50;;;3.72;;
37641;SDS011;23486;51.956;5.888;2023-08-30T00:02:34;5.55;;;3.28;;
37641;SDS011;23486;51.956;5.888;2023-08-30T00:05:02;6.30;;;3.22;;
37641;SDS011;23486;51.956;5.888;2023-08-30T00:07:28;4.85;;;2.92;;
37641;SDS011;23486;51.956;5.888;2023-08-30T00:09:53;5.25;;;3.63;;
37641;SDS011;23486;51.956;5.888;2023-08-30T00:12:19;7.32;;;3.92;;
37641;SDS011;23486;51.956;5.888;2023-08-30T00:14:45;5.63;;;2.83;;
37641;SDS011;23486;51.956;5.888;2023-08-30T00:17:10;7.10;;;3.40;;
37641;SDS011;23486;51.956;5.888;2023-08-30T00:19:36;4.97;;;2.47;;
37641;SDS011;23486;51.956;5.888;2023-08-30T00:22:01;6.55;;;3.58;;
37641;SDS011;23486;51.956;5.888;2023-08-30T00:24:27;5.63;;;3.17;;
37641;SDS011;23486;51.956;5.888;2023-08-30T00:26:53;4.93;;;3.00;;
37641;SDS011;23486;51.956;5.888;2023-08-30T00:29:19;5.20;;;3.22;;
37641;SDS011;23486;51.956;5.888;2023-08-30T00:31:44;5.30;;;3.30;;
37641;SDS011;23486;51.956;5.888;2023-08-30T00:34:10;5.63;;;3.72;;
37641;SDS011;23486;51.956;5.888;2023-08-30T00:36:36;5.28;;;3.78;;
37641;SDS011;23486;51.956;5.888;2023-08-30T00:39:02;5.57;;;3.08;;
37641;SDS011;23486;51.956;5.888;2023-08-30T00:41:29;5.35;;;3.42;;
37641;SDS011;23486;51.956;5.888;2023-08-30T00:43:54;5.40;;;3.47;;
37641;SDS011;23486;51.956;5.888;2023-08-30T00:46:20;5.20;;;3.25;;
37641;SDS011;23486;51.956;5.888;2023-08-30T00:48:45;7.72;;;3.60;;
37641;SDS011;23486;51.956;5.888;2023-08-30T00:51:12;6.05;;;3.47;;
37641;SDS011;23486;51.956;5.888;2023-08-30T00:53:38;7.03;;;3.58;;
37641;SDS011;23486;51.956;5.888;2023-08-30T00:56:04;4.82;;;3.53;;
37641;SDS011;23486;51.956;5.888;2023-08-30T00:58:30;5.57;;;3.25;;
37641;SDS011;23486;51.956;5.888;2023-08-30T01:00:56;4.93;;;3.45;;
37641;SDS011;23486;51.956;5.888;2023-08-30T01:03:22;4.60;;;2.90;;
37641;SDS011;23486;51.956;5.888;2023-08-30T01:05:48;5.65;;;3.08;;
37641;SDS011;23486;51.956;5.888;2023-08-30T01:08:14;5.18;;;3.35;;
37641;SDS011;23486;51.956;5.888;2023-08-30T01:13:37;4.30;;;2.72;;
37641;SDS011;23486;51.956;5.888;2023-08-30T01:16:09;5.93;;;3.50;;
37641;SDS011;23486;51.956;5.888;2023-08-30T01:18:35;5.07;;;3.30;;
37641;SDS011;23486;51.956;5.888;2023-08-30T01:21:04;6.47;;;3.80;;
37641;SDS011;23486;51.956;5.888;2023-08-30T01:26:16;5.43;;;3.35;;
37641;SDS011;23486;51.956;5.888;2023-08-30T01:28:51;4.75;;;3.03;;
37641;SDS011;23486;51.956;5.888;2023-08-30T01:31:19;5.55;;;3.45;;
37641;SDS011;23486;51.956;5.888;2023-08-30T01:33:46;6.90;;;3.53;;
37641;SDS011;23486;51.956;5.888;2023-08-30T01:36:13;5.63;;;3.58;;
37641;SDS011;23486;51.956;5.888;2023-08-30T01:38:39;6.10;;;3.50;;
37641;SDS011;23486;51.956;5.888;2023-08-30T01:41:05;4.97;;;3.35;;
37641;SDS011;23486;51.956;5.888;2023-08-30T01:43:31;5.38;;;3.70;;
37641;SDS011;23486;51.956;5.888;2023-08-30T01:45:58;5.65;;;3.53;;
37641;SDS011;23486;51.956;5.888;2023-08-30T01:48:26;7.10;;;4.40;;
37641;SDS011;23486;51.956;5.888;2023-08-30T01:50:52;9.35;;;4.07;;
37641;SDS011;23486;51.956;5.888;2023-08-30T01:53:23;7.30;;;4.00;;
37641;SDS011;23486;51.956;5.888;2023-08-30T01:55:50;6.80;;;3.75;;
37641;SDS011;23486;51.956;5.888;2023-08-30T01:58:15;7.28;;;4.15;;
37641;SDS011;23486;51.956;5.888;2023-08-30T02:00:41;6.20;;;3.80;;
37641;SDS011;23486;51.956;5.888;2023-08-30T02:03:10;6.28;;;3.88;;
37641;SDS011;23486;51.956;5.888;2023-08-30T02:05:41;6.82;;;4.03;;
37641;SDS011;23486;51.956;5.888;2023-08-30T02:08:26;6.43;;;4.18;;
37641;SDS011;23486;51.956;5.888;2023-08-30T02:10:56;7.15;;;3.75;;
37641;SDS011;23486;51.956;5.888;2023-08-30T02:13:27;5.00;;;3.45;;
37641;SDS011;23486;51.956;5.888;2023-08-30T02:15:55;6.95;;;4.65;;
37641;SDS011;23486;51.956;5.888;2023-08-30T02:18:24;5.05;;;3.47;;
37641;SDS011;23486;51.956;5.888;2023-08-30T02:20:51;5.95;;;3.67;;
37641;SDS011;23486;51.956;5.888;2023-08-30T02:23:16;5.57;;;3.97;;
37641;SDS011;23486;51.956;5.888;2023-08-30T02:25:42;6.45;;;4.15;;
37641;SDS011;23486;51.956;5.888;2023-08-30T02:28:08;6.82;;;3.65;;
37641;SDS011;23486;51.956;5.888;2023-08-30T02:30:33;5.50;;;3.55;;
37641;SDS011;23486;51.956;5.888;2023-08-30T02:32:59;6.32;;;3.95;;
37641;SDS011;23486;51.956;5.888;2023-08-30T02:35:25;6.13;;;3.33;;
37641;SDS011;23486;51.956;5.888;2023-08-30T02:37:50;6.40;;;3.47;;
37641;SDS011;23486;51.956;5.888;2023-08-30T02:40:16;5.95;;;3.80;;
37641;SDS011;23486;51.956;5.888;2023-08-30T02:42:41;6.38;;;3.30;;
37641;SDS011;23486;51.956;5.888;2023-08-30T02:45:07;5.35;;;3.35;;
37641;SDS011;23486;51.956;5.888;2023-08-30T02:47:33;6.38;;;3.40;;
37641;SDS011;23486;51.956;5.888;2023-08-30T02:49:59;7.65;;;3.65;;
37641;SDS011;23486;51.956;5.888;2023-08-30T02:52:24;6.20;;;3.15;;
37641;SDS011;23486;51.956;5.888;2023-08-30T02:54:50;5.72;;;3.50;;
37641;SDS011;23486;51.956;5.888;2023-08-30T02:57:16;6.85;;;3.80;;
37641;SDS011;23486;51.956;5.888;2023-08-30T02:59:41;6.55;;;3.90;;
37641;SDS011;23486;51.956;5.888;2023-08-30T03:02:07;5.63;;;3.97;;
37641;SDS011;23486;51.956;5.888;2023-08-30T03:04:32;6.13;;;4.13;;
37641;SDS011;23486;51.956;5.888;2023-08-30T03:06:59;6.28;;;4.25;;
37641;SDS011;23486;51.956;5.888;2023-08-30T03:09:24;6.18;;;4.15;;
37641;SDS011;23486;51.956;5.888;2023-08-30T03:11:50;6.57;;;4.38;;
37641;SDS011;23486;51.956;5.888;2023-08-30T03:14:16;6.88;;;3.70;;
37641;SDS011;23486;51.956;5.888;2023-08-30T03:16:41;5.65;;;3.70;;
37641;SDS011;23486;51.956;5.888;2023-08-30T03:19:09;6.95;;;4.43;;
37641;SDS011;23486;51.956;5.888;2023-08-30T03:21:35;6.68;;;4.25;;
37641;SDS011;23486;51.956;5.888;2023-08-30T03:24:00;5.95;;;3.85;;
37641;SDS011;23486;51.956;5.888;2023-08-30T03:26:26;7.13;;;4.82;;
37641;SDS011;23486;51.956;5.888;2023-08-30T03:28:52;7.47;;;4.53;;
37641;SDS011;23486;51.956;5.888;2023-08-30T03:31:20;7.55;;;5.15;;
37641;SDS011;23486;51.956;5.888;2023-08-30T03:33:46;7.47;;;4.18;;
37641;SDS011;23486;51.956;5.888;2023-08-30T03:36:13;7.90;;;4.65;;
37641;SDS011;23486;51.956;5.888;2023-08-30T03:38:41;6.05;;;4.10;;
37641;SDS011;23486;51.956;5.888;2023-08-30T03:41:07;7.60;;;4.53;;
37641;SDS011;23486;51.956;5.888;2023-08-30T03:43:33;7.63;;;5.00;;
37641;SDS011;23486;51.956;5.888;2023-08-30T03:45:59;10.48;;;5.20;;
37641;SDS011;23486;51.956;5.888;2023-08-30T03:48:26;6.55;;;4.53;;
37641;SDS011;23486;51.956;5.888;2023-08-30T03:50:52;7.75;;;4.72;;
37641;SDS011;23486;51.956;5.888;2023-08-30T03:53:19;8.32;;;5.65;;
37641;SDS011;23486;51.956;5.888;2023-08-30T03:55:44;10.18;;;5.35;;
37641;SDS011;23486;51.956;5.888;2023-08-30T03:58:10;9.80;;;5.97;;
37641;SDS011;23486;51.956;5.888;2023-08-30T04:00:38;7.70;;;5.57;;
37641;SDS011;23486;51.956;5.888;2023-08-30T04:03:07;8.00;;;4.70;;
37641;SDS011;23486;51.956;5.888;2023-08-30T04:05:34;7.55;;;4.88;;
37641;SDS011;23486;51.956;5.888;2023-08-30T04:08:01;8.35;;;5.38;;
37641;SDS011;23486;51.956;5.888;2023-08-30T04:10:27;7.25;;;4.93;;
37641;SDS011;23486;51.956;5.888;2023-08-30T04:12:53;8.10;;;5.72;;
37641;SDS011;23486;51.956;5.888;2023-08-30T04:15:18;9.35;;;5.32;;
37641;SDS011;23486;51.956;5.888;2023-08-30T04:17:44;8.93;;;6.20;;
37641;SDS011;23486;51.956;5.888;2023-08-30T04:20:10;9.27;;;5.70;;
37641;SDS011;23486;51.956;5.888;2023-08-30T04:22:36;9.32;;;5.50;;
37641;SDS011;23486;51.956;5.888;2023-08-30T04:25:03;9.43;;;5.63;;
37641;SDS011;23486;51.956;5.888;2023-08-30T04:27:29;8.13;;;6.05;;
37641;SDS011;23486;51.956;5.888;2023-08-30T04:29:54;9.88;;;6.28;;
37641;SDS011;23486;51.956;5.888;2023-08-30T04:32:20;8.50;;;5.80;;
37641;SDS011;23486;51.956;5.888;2023-08-30T04:34:46;10.20;;;5.93;;
37641;SDS011;23486;51.956;5.888;2023-08-30T04:37:11;9.07;;;5.95;;
37641;SDS011;23486;51.956;5.888;2023-08-30T04:39:37;8.73;;;5.90;;
37641;SDS011;23486;51.956;5.888;2023-08-30T04:42:03;9.07;;;5.50;;
37641;SDS011;23486;51.956;5.888;2023-08-30T04:44:28;9.45;;;5.95;;
37641;SDS011;23486;51.956;5.888;2023-08-30T04:46:54;8.63;;;4.90;;
37641;SDS011;23486;51.956;5.888;2023-08-30T04:49:20;9.52;;;6.07;;
37641;SDS011;23486;51.956;5.888;2023-08-30T04:51:46;9.80;;;6.13;;
37641;SDS011;23486;51.956;5.888;2023-08-30T04:54:12;10.73;;;6.93;;
37641;SDS011;23486;51.956;5.888;2023-08-30T04:56:39;9.10;;;5.43;;
37641;SDS011;23486;51.956;5.888;2023-08-30T04:59:04;9.55;;;5.70;;
37641;SDS011;23486;51.956;5.888;2023-08-30T05:01:30;9.13;;;5.97;;
37641;SDS011;23486;51.956;5.888;2023-08-30T05:03:55;8.93;;;5.10;;
37641;SDS011;23486;51.956;5.888;2023-08-30T05:06:21;11.82;;;6.75;;
37641;SDS011;23486;51.956;5.888;2023-08-30T05:08:47;9.63;;;6.07;;
37641;SDS011;23486;51.956;5.888;2023-08-30T05:11:12;10.82;;;7.07;;
37641;SDS011;23486;51.956;5.888;2023-08-30T05:13:38;10.68;;;6.32;;
37641;SDS011;23486;51.956;5.888;2023-08-30T05:16:04;10.93;;;5.97;;
37641;SDS011;23486;51.956;5.888;2023-08-30T05:18:29;10.05;;;6.35;;
37641;SDS011;23486;51.956;5.888;2023-08-30T05:20:55;9.32;;;6.20;;
37641;SDS011;23486;51.956;5.888;2023-08-30T05:23:21;8.32;;;5.95;;
37641;SDS011;23486;51.956;5.888;2023-08-30T05:25:47;7.68;;;5.50;;
37641;SDS011;23486;51.956;5.888;2023-08-30T05:28:12;8.63;;;5.75;;
37641;SDS011;23486;51.956;5.888;2023-08-30T05:30:41;9.02;;;6.10;;
37641;SDS011;23486;51.956;5.888;2023-08-30T05:33:07;9.68;;;6.00;;
37641;SDS011;23486;51.956;5.888;2023-08-30T05:35:33;8.55;;;5.53;;
37641;SDS011;23486;51.956;5.888;2023-08-30T05:37:58;10.40;;;6.45;;
37641;SDS011;23486;51.956;5.888;2023-08-30T05:40:24;9.27;;;5.95;;
37641;SDS011;23486;51.956;5.888;2023-08-30T05:42:50;9.27;;;6.20;;
37641;SDS011;23486;51.956;5.888;2023-08-30T05:45:15;9.43;;;6.30;;
37641;SDS011;23486;51.956;5.888;2023-08-30T05:47:41;9.27;;;5.93;;
37641;SDS011;23486;51.956;5.888;2023-08-30T05:50:07;10.45;;;6.38;;
37641;SDS011;23486;51.956;5.888;2023-08-30T05:52:33;10.27;;;6.85;;
37641;SDS011;23486;51.956;5.888;2023-08-30T05:54:59;10.25;;;7.25;;
37641;SDS011;23486;51.956;5.888;2023-08-30T05:57:24;9.35;;;6.13;;
37641;SDS011;23486;51.956;5.888;2023-08-30T05:59:50;10.20;;;6.03;;
37641;SDS011;23486;51.956;5.888;2023-08-30T06:02:16;8.63;;;6.00;;
37641;SDS011;23486;51.956;5.888;2023-08-30T06:04:42;11.75;;;6.55;;
37641;SDS011;23486;51.956;5.888;2023-08-30T06:07:07;11.38;;;6.38;;
37641;SDS011;23486;51.956;5.888;2023-08-30T06:09:33;10.95;;;6.75;;
37641;SDS011;23486;51.956;5.888;2023-08-30T06:11:59;11.18;;;6.03;;
37641;SDS011;23486;51.956;5.888;2023-08-30T06:14:25;10.80;;;6.10;;
37641;SDS011;23486;51.956;5.888;2023-08-30T06:16:51;8.13;;;6.25;;
37641;SDS011;23486;51.956;5.888;2023-08-30T06:19:16;10.45;;;6.07;;
37641;SDS011;23486;51.956;5.888;2023-08-30T06:21:42;10.52;;;6.57;;
37641;SDS011;23486;51.956;5.888;2023-08-30T06:24:07;10.20;;;6.03;;
37641;SDS011;23486;51.956;5.888;2023-08-30T06:26:33;10.95;;;6.70;;
37641;SDS011;23486;51.956;5.888;2023-08-30T06:28:58;10.35;;;6.70;;
37641;SDS011;23486;51.956;5.888;2023-08-30T06:31:24;8.98;;;6.25;;
37641;SDS011;23486;51.956;5.888;2023-08-30T06:33:51;9.60;;;6.90;;
37641;SDS011;23486;51.956;5.888;2023-08-30T06:36:16;9.45;;;6.75;;
37641;SDS011;23486;51.956;5.888;2023-08-30T06:38:43;11.32;;;6.93;;
37641;SDS011;23486;51.956;5.888;2023-08-30T06:41:09;11.35;;;6.78;;
37641;SDS011;23486;51.956;5.888;2023-08-30T06:43:35;11.30;;;6.80;;
37641;SDS011;23486;51.956;5.888;2023-08-30T06:46:00;9.45;;;7.47;;
37641;SDS011;23486;51.956;5.888;2023-08-30T06:48:26;11.20;;;7.78;;
37641;SDS011;23486;51.956;5.888;2023-08-30T06:50:51;12.27;;;8.25;;
37641;SDS011;23486;51.956;5.888;2023-08-30T06:53:17;10.43;;;7.57;;
37641;SDS011;23486;51.956;5.888;2023-08-30T06:55:43;9.88;;;7.63;;
37641;SDS011;23486;51.956;5.888;2023-08-30T06:58:08;13.73;;;7.43;;
37641;SDS011;23486;51.956;5.888;2023-08-30T07:00:34;9.35;;;6.20;;
37641;SDS011;23486;51.956;5.888;2023-08-30T07:02:59;11.20;;;7.10;;
37641;SDS011;23486;51.956;5.888;2023-08-30T07:05:25;9.18;;;7.13;;
37641;SDS011;23486;51.956;5.888;2023-08-30T07:07:51;10.90;;;7.50;;
37641;SDS011;23486;51.956;5.888;2023-08-30T07:10:16;10.80;;;6.38;;
37641;SDS011;23486;51.956;5.888;2023-08-30T07:12:42;9.02;;;7.07;;
37641;SDS011;23486;51.956;5.888;2023-08-30T07:15:10;10.48;;;6.57;;
37641;SDS011;23486;51.956;5.888;2023-08-30T07:17:35;10.18;;;7.57;;
37641;SDS011;23486;51.956;5.888;2023-08-30T07:20:01;11.98;;;7.75;;
37641;SDS011;23486;51.956;5.888;2023-08-30T07:22:28;11.68;;;8.07;;
37641;SDS011;23486;51.956;5.888;2023-08-30T07:24:54;10.63;;;8.05;;
37641;SDS011;23486;51.956;5.888;2023-08-30T07:27:19;11.63;;;7.15;;
37641;SDS011;23486;51.956;5.888;2023-08-30T07:29:45;12.75;;;7.70;;
37641;SDS011;23486;51.956;5.888;2023-08-30T07:32:11;11.70;;;6.50;;
37641;SDS011;23486;51.956;5.888;2023-08-30T07:34:36;12.95;;;8.30;;
37641;SDS011;23486;51.956;5.888;2023-08-30T07:37:02;10.13;;;7.25;;
37641;SDS011;23486;51.956;5.888;2023-08-30T07:39:28;9.65;;;7.22;;
37641;SDS011;23486;51.956;5.888;2023-08-30T07:41:53;12.43;;;8.50;;
37641;SDS011;23486;51.956;5.888;2023-08-30T07:44:19;12.50;;;7.20;;
37641;SDS011;23486;51.956;5.888;2023-08-30T07:46:45;9.07;;;6.35;;
37641;SDS011;23486;51.956;5.888;2023-08-30T07:49:11;11.13;;;7.45;;
37641;SDS011;23486;51.956;5.888;2023-08-30T07:51:37;9.15;;;6.60;;
37641;SDS011;23486;51.956;5.888;2023-08-30T07:54:03;9.85;;;6.80;;
37641;SDS011;23486;51.956;5.888;2023-08-30T07:56:28;13.35;;;6.93;;
37641;SDS011;23486;51.956;5.888;2023-08-30T07:58:54;12.32;;;7.00;;
37641;SDS011;23486;51.956;5.888;2023-08-30T08:01:20;10.77;;;5.93;;
37641;SDS011;23486;51.956;5.888;2023-08-30T08:03:45;11.18;;;6.70;;
37641;SDS011;23486;51.956;5.888;2023-08-30T08:06:12;9.65;;;6.55;;
37641;SDS011;23486;51.956;5.888;2023-08-30T08:08:37;10.70;;;7.22;;
37641;SDS011;23486;51.956;5.888;2023-08-30T08:11:03;12.90;;;7.25;;
37641;SDS011;23486;51.956;5.888;2023-08-30T08:13:28;11.93;;;7.07;;
37641;SDS011;23486;51.956;5.888;2023-08-30T08:15:57;10.65;;;7.07;;
37641;SDS011;23486;51.956;5.888;2023-08-30T08:18:23;12.57;;;6.68;;
37641;SDS011;23486;51.956;5.888;2023-08-30T08:20:49;10.75;;;6.25;;
37641;SDS011;23486;51.956;5.888;2023-08-30T08:23:15;11.70;;;6.25;;
37641;SDS011;23486;51.956;5.888;2023-08-30T08:25:41;8.88;;;5.82;;
37641;SDS011;23486;51.956;5.888;2023-08-30T08:28:06;10.05;;;6.35;;
37641;SDS011;23486;51.956;5.888;2023-08-30T08:30:32;10.50;;;6.03;;
37641;SDS011;23486;51.956;5.888;2023-08-30T08:32:58;9.73;;;5.68;;
37641;SDS011;23486;51.956;5.888;2023-08-30T08:35:24;10.38;;;6.35;;
37641;SDS011;23486;51.956;5.888;2023-08-30T08:37:49;9.25;;;5.78;;
37641;SDS011;23486;51.956;5.888;2023-08-30T08:40:16;13.57;;;6.95;;
37641;SDS011;23486;51.956;5.888;2023-08-30T08:42:42;9.88;;;6.13;;
37641;SDS011;23486;51.956;5.888;2023-08-30T08:45:09;9.55;;;6.28;;
37641;SDS011;23486;51.956;5.888;2023-08-30T08:47:37;9.20;;;6.05;;
37641;SDS011;23486;51.956;5.888;2023-08-30T08:50:03;8.95;;;6.28;;
37641;SDS011;23486;51.956;5.888;2023-08-30T08:52:29;8.18;;;5.95;;
37641;SDS011;23486;51.956;5.888;2023-08-30T08:54:55;11.10;;;7.03;;
37641;SDS011;23486;51.956;5.888;2023-08-30T08:57:22;10.98;;;7.20;;
37641;SDS011;23486;51.956;5.888;2023-08-30T08:59:48;10.70;;;8.25;;
37641;SDS011;23486;51.956;5.888;2023-08-30T09:02:15;8.93;;;6.78;;
37641;SDS011;23486;51.956;5.888;2023-08-30T09:04:41;11.05;;;7.22;;
37641;SDS011;23486;51.956;5.888;2023-08-30T09:07:06;10.23;;;7.63;;
37641;SDS011;23486;51.956;5.888;2023-08-30T09:09:33;9.73;;;7.65;;
37641;SDS011;23486;51.956;5.888;2023-08-30T09:11:59;9.63;;;6.70;;
37641;SDS011;23486;51.956;5.888;2023-08-30T09:14:25;11.70;;;7.75;;
37641;SDS011;23486;51.956;5.888;2023-08-30T09:16:54;13.07;;;7.45;;
37641;SDS011;23486;51.956;5.888;2023-08-30T09:19:20;10.48;;;8.00;;
37641;SDS011;23486;51.956;5.888;2023-08-30T09:21:53;11.48;;;8.30;;
37641;SDS011;23486;51.956;5.888;2023-08-30T09:24:20;12.32;;;7.80;;
37641;SDS011;23486;51.956;5.888;2023-08-30T09:26:50;11.05;;;7.57;;
37641;SDS011;23486;51.956;5.888;2023-08-30T09:29:17;11.90;;;7.20;;
37641;SDS011;23486;51.956;5.888;2023-08-30T09:31:44;12.80;;;6.80;;
37641;SDS011;23486;51.956;5.888;2023-08-30T09:34:10;11.52;;;7.65;;
37641;SDS011;23486;51.956;5.888;2023-08-30T09:36:36;10.82;;;6.45;;
37641;SDS011;23486;51.956;5.888;2023-08-30T09:39:09;10.43;;;6.90;;
37641;SDS011;23486;51.956;5.888;2023-08-30T09:41:40;9.82;;;6.95;;
37641;SDS011;23486;51.956;5.888;2023-08-30T09:44:14;8.13;;;5.32;;
37641;SDS011;23486;51.956;5.888;2023-08-30T09:46:44;8.35;;;5.47;;
37641;SDS011;23486;51.956;5.888;2023-08-30T09:49:11;7.53;;;5.10;;
37641;SDS011;23486;51.956;5.888;2023-08-30T09:51:38;10.85;;;5.95;;
37641;SDS011;23486;51.956;5.888;2023-08-30T09:54:21;8.27;;;6.15;;
37641;SDS011;23486;51.956;5.888;2023-08-30T09:56:48;12.43;;;7.35;;
37641;SDS011;23486;51.956;5.888;2023-08-30T09:59:17;8.15;;;6.70;;
37641;SDS011;23486;51.956;5.888;2023-08-30T10:01:43;6.88;;;5.18;;
37641;SDS011;23486;51.956;5.888;2023-08-30T10:04:12;6.78;;;4.90;;
37641;SDS011;23486;51.956;5.888;2023-08-30T10:06:38;9.82;;;5.65;;
37641;SDS011;23486;51.956;5.888;2023-08-30T10:09:05;7.63;;;5.15;;
37641;SDS011;23486;51.956;5.888;2023-08-30T10:11:33;6.93;;;5.40;;
37641;SDS011;23486;51.956;5.888;2023-08-30T10:14:00;7.75;;;5.07;;
37641;SDS011;23486;51.956;5.888;2023-08-30T10:16:53;7.30;;;5.20;;
37641;SDS011;23486;51.956;5.888;2023-08-30T10:21:50;8.75;;;6.13;;
37641;SDS011;23486;51.956;5.888;2023-08-30T10:24:28;8.05;;;6.18;;
37641;SDS011;23486;51.956;5.888;2023-08-30T10:27:01;6.65;;;5.05;;
37641;SDS011;23486;51.956;5.888;2023-08-30T10:29:29;8.98;;;5.82;;
37641;SDS011;23486;51.956;5.888;2023-08-30T10:32:01;8.90;;;6.78;;
37641;SDS011;23486;51.956;5.888;2023-08-30T10:34:33;7.63;;;6.28;;
37641;SDS011;23486;51.956;5.888;2023-08-30T10:37:01;8.60;;;7.15;;
37641;SDS011;23486;51.956;5.888;2023-08-30T10:39:34;9.20;;;7.90;;
37641;SDS011;23486;51.956;5.888;2023-08-30T10:42:01;9.13;;;6.10;;
37641;SDS011;23486;51.956;5.888;2023-08-30T10:44:32;7.57;;;6.03;;
37641;SDS011;23486;51.956;5.888;2023-08-30T10:46:57;9.13;;;6.93;;
37641;SDS011;23486;51.956;5.888;2023-08-30T10:49:27;9.82;;;7.88;;
37641;SDS011;23486;51.956;5.888;2023-08-30T10:51:56;8.93;;;8.02;;
37641;SDS011;23486;51.956;5.888;2023-08-30T10:54:35;10.15;;;9.07;;
37641;SDS011;23486;51.956;5.888;2023-08-30T10:57:03;9.13;;;7.97;;
37641;SDS011;23486;51.956;5.888;2023-08-30T10:59:29;8.55;;;7.65;;
37641;SDS011;23486;51.956;5.888;2023-08-30T11:01:54;9.02;;;7.55;;
37641;SDS011;23486;51.956;5.888;2023-08-30T11:04:21;9.73;;;7.07;;
37641;SDS011;23486;51.956;5.888;2023-08-30T11:06:48;9.32;;;8.38;;
37641;SDS011;23486;51.956;5.888;2023-08-30T11:09:18;7.32;;;6.57;;
37641;SDS011;23486;51.956;5.888;2023-08-30T11:11:46;9.63;;;8.65;;
37641;SDS011;23486;51.956;5.888;2023-08-30T11:14:12;10.30;;;8.50;;
37641;SDS011;23486;51.956;5.888;2023-08-30T11:16:38;9.95;;;8.57;;
37641;SDS011;23486;51.956;5.888;2023-08-30T11:19:05;11.18;;;9.20;;
37641;SDS011;23486;51.956;5.888;2023-08-30T11:21:32;9.70;;;8.65;;
37641;SDS011;23486;51.956;5.888;2023-08-30T11:24:01;9.75;;;8.75;;
37641;SDS011;23486;51.956;5.888;2023-08-30T11:26:28;7.78;;;6.70;;
37641;SDS011;23486;51.956;5.888;2023-08-30T11:28:54;10.95;;;9.63;;
37641;SDS011;23486;51.956;5.888;2023-08-30T11:31:26;10.85;;;9.75;;
37641;SDS011;23486;51.956;5.888;2023-08-30T11:36:20;10.40;;;8.43;;
37641;SDS011;23486;51.956;5.888;2023-08-30T11:38:47;12.55;;;9.27;;
37641;SDS011;23486;51.956;5.888;2023-08-30T11:41:14;7.53;;;6.72;;
37641;SDS011;23486;51.956;5.888;2023-08-30T11:43:40;6.80;;;5.80;;
37641;SDS011;23486;51.956;5.888;2023-08-30T11:46:06;5.82;;;4.95;;
37641;SDS011;23486;51.956;5.888;2023-08-30T11:48:32;7.53;;;5.38;;
37641;SDS011;23486;51.956;5.888;2023-08-30T11:50:59;4.93;;;4.28;;
37641;SDS011;23486;51.956;5.888;2023-08-30T11:53:25;4.85;;;3.45;;
37641;SDS011;23486;51.956;5.888;2023-08-30T11:55:51;5.60;;;4.15;;
37641;SDS011;23486;51.956;5.888;2023-08-30T11:58:18;6.72;;;4.63;;
37641;SDS011;23486;51.956;5.888;2023-08-30T12:00:44;7.13;;;3.78;;
37641;SDS011;23486;51.956;5.888;2023-08-30T12:03:14;5.70;;;2.85;;
37641;SDS011;23486;51.956;5.888;2023-08-30T12:05:49;5.18;;;2.92;;
37641;SDS011;23486;51.956;5.888;2023-08-30T12:08:19;5.45;;;2.97;;
37641;SDS011;23486;51.956;5.888;2023-08-30T12:10:48;10.43;;;4.57;;
37641;SDS011;23486;51.956;5.888;2023-08-30T12:15:48;4.97;;;1.98;;
37641;SDS011;23486;51.956;5.888;2023-08-30T12:18:14;5.60;;;2.60;;
37641;SDS011;23486;51.956;5.888;2023-08-30T12:20:50;8.07;;;2.40;;
37641;SDS011;23486;51.956;5.888;2023-08-30T12:23:21;6.85;;;2.78;;
37641;SDS011;23486;51.956;5.888;2023-08-30T12:26:00;4.05;;;1.92;;
37641;SDS011;23486;51.956;5.888;2023-08-30T12:28:34;4.65;;;1.33;;
37641;SDS011;23486;51.956;5.888;2023-08-30T12:31:01;8.50;;;2.40;;
37641;SDS011;23486;51.956;5.888;2023-08-30T12:33:29;6.40;;;1.38;;
37641;SDS011;23486;51.956;5.888;2023-08-30T12:35:55;7.45;;;1.67;;
37641;SDS011;23486;51.956;5.888;2023-08-30T12:38:21;4.38;;;1.35;;
37641;SDS011;23486;51.956;5.888;2023-08-30T12:40:48;3.95;;;1.23;;
37641;SDS011;23486;51.956;5.888;2023-08-30T12:43:15;4.43;;;1.45;;
37641;SDS011;23486;51.956;5.888;2023-08-30T12:45:41;6.03;;;1.35;;
37641;SDS011;23486;51.956;5.888;2023-08-30T12:48:08;6.70;;;1.42;;
37641;SDS011;23486;51.956;5.888;2023-08-30T12:50:35;7.88;;;1.63;;
37641;SDS011;23486;51.956;5.888;2023-08-30T12:53:02;4.68;;;1.10;;
37641;SDS011;23486;51.956;5.888;2023-08-30T12:55:28;6.80;;;1.63;;
37641;SDS011;23486;51.956;5.888;2023-08-30T12:57:54;7.38;;;1.17;;
37641;SDS011;23486;51.956;5.888;2023-08-30T13:00:20;4.60;;;0.98;;
37641;SDS011;23486;51.956;5.888;2023-08-30T13:02:46;4.60;;;0.70;;
37641;SDS011;23486;51.956;5.888;2023-08-30T13:05:11;4.75;;;1.00;;
37641;SDS011;23486;51.956;5.888;2023-08-30T13:07:37;4.32;;;0.80;;
37641;SDS011;23486;51.956;5.888;2023-08-30T13:10:04;7.85;;;1.35;;
37641;SDS011;23486;51.956;5.888;2023-08-30T13:12:31;6.47;;;1.00;;
37641;SDS011;23486;51.956;5.888;2023-08-30T13:14:56;4.03;;;1.00;;
37641;SDS011;23486;51.956;5.888;2023-08-30T13:17:22;6.53;;;1.00;;
37641;SDS011;23486;51.956;5.888;2023-08-30T13:19:48;8.18;;;1.40;;
37641;SDS011;23486;51.956;5.888;2023-08-30T13:22:14;6.35;;;1.27;;
37641;SDS011;23486;51.956;5.888;2023-08-30T13:24:40;6.10;;;0.75;;
37641;SDS011;23486;51.956;5.888;2023-08-30T13:27:05;7.07;;;0.90;;
37641;SDS011;23486;51.956;5.888;2023-08-30T13:29:31;8.07;;;0.77;;
37641;SDS011;23486;51.956;5.888;2023-08-30T13:31:57;7.95;;;1.00;;
37641;SDS011;23486;51.956;5.888;2023-08-30T13:34:22;5.07;;;0.90;;
37641;SDS011;23486;51.956;5.888;2023-08-30T13:36:48;5.63;;;0.75;;
37641;SDS011;23486;51.956;5.888;2023-08-30T13:39:14;3.90;;;0.77;;
37641;SDS011;23486;51.956;5.888;2023-08-30T13:41:40;4.53;;;0.68;;
37641;SDS011;23486;51.956;5.888;2023-08-30T13:44:06;3.72;;;0.80;;
37641;SDS011;23486;51.956;5.888;2023-08-30T13:46:31;6.13;;;0.60;;
37641;SDS011;23486;51.956;5.888;2023-08-30T13:48:57;5.93;;;0.70;;
37641;SDS011;23486;51.956;5.888;2023-08-30T13:51:23;6.05;;;0.98;;
37641;SDS011;23486;51.956;5.888;2023-08-30T13:53:50;8.05;;;1.15;;
37641;SDS011;23486;51.956;5.888;2023-08-30T13:56:17;6.57;;;0.77;;
37641;SDS011;23486;51.956;5.888;2023-08-30T13:58:43;6.65;;;0.60;;
37641;SDS011;23486;51.956;5.888;2023-08-30T14:01:09;4.05;;;0.60;;
37641;SDS011;23486;51.956;5.888;2023-08-30T14:03:35;5.95;;;0.80;;
37641;SDS011;23486;51.956;5.888;2023-08-30T14:06:01;5.65;;;0.75;;
37641;SDS011;23486;51.956;5.888;2023-08-30T14:08:27;4.72;;;0.68;;
37641;SDS011;23486;51.956;5.888;2023-08-30T14:10:52;6.05;;;0.70;;
37641;SDS011;23486;51.956;5.888;2023-08-30T14:13:19;9.48;;;1.33;;
37641;SDS011;23486;51.956;5.888;2023-08-30T14:15:45;6.88;;;0.80;;
37641;SDS011;23486;51.956;5.888;2023-08-30T14:18:10;6.30;;;0.80;;
37641;SDS011;23486;51.956;5.888;2023-08-30T14:20:36;4.05;;;0.52;;
37641;SDS011;23486;51.956;5.888;2023-08-30T14:23:02;7.50;;;0.90;;
37641;SDS011;23486;51.956;5.888;2023-08-30T14:25:28;5.10;;;0.50;;
37641;SDS011;23486;51.956;5.888;2023-08-30T14:27:54;7.03;;;0.65;;
37641;SDS011;23486;51.956;5.888;2023-08-30T14:30:20;4.05;;;0.57;;
37641;SDS011;23486;51.956;5.888;2023-08-30T14:32:46;5.57;;;0.50;;
37641;SDS011;23486;51.956;5.888;2023-08-30T14:35:11;5.72;;;0.60;;
37641;SDS011;23486;51.956;5.888;2023-08-30T14:37:37;5.50;;;0.70;;
37641;SDS011;23486;51.956;5.888;2023-08-30T14:40:04;7.47;;;0.80;;
37641;SDS011;23486;51.956;5.888;2023-08-30T14:42:31;8.52;;;1.23;;
37641;SDS011;23486;51.956;5.888;2023-08-30T14:44:57;5.53;;;0.60;;
37641;SDS011;23486;51.956;5.888;2023-08-30T14:47:23;5.50;;;0.68;;
37641;SDS011;23486;51.956;5.888;2023-08-30T14:49:49;5.47;;;0.55;;
37641;SDS011;23486;51.956;5.888;2023-08-30T14:52:14;3.58;;;0.80;;
37641;SDS011;23486;51.956;5.888;2023-08-30T14:54:41;4.85;;;1.10;;